createdAt,value
2023-04-19T00:00:08.587Z,1026.04
2023-04-19T00:05:08.061Z,1025.95
2023-04-19T00:10:08.185Z,1025.88
2023-04-19T00:15:08.269Z,1025.86
2023-04-19T00:20:08.352Z,1025.86
2023-04-19T00:25:08.403Z,1025.89
2023-04-19T00:30:08.457Z,1025.89
2023-04-19T00:35:08.520Z,1025.68
2023-04-19T00:40:08.597Z,1025.72
2023-04-19T00:45:08.664Z,1025.77
2023-04-19T00:50:08.728Z,1025.73
2023-04-19T00:55:08.782Z,1025.61
2023-04-19T01:00:08.818Z,1025.67
2023-04-19T01:05:08.810Z,1025.64
2023-04-19T01:10:08.832Z,1025.55
2023-04-19T01:15:08.883Z,1025.53
2023-04-19T01:20:08.955Z,1025.47
2023-04-19T01:25:08.913Z,1025.47
2023-04-19T01:30:08.963Z,1025.42
2023-04-19T01:35:08.030Z,1025.29
2023-04-19T01:40:08.075Z,1025.29
2023-04-19T01:45:08.087Z,1025.29
2023-04-19T01:50:08.125Z,1025.24
2023-04-19T01:55:08.113Z,1025.29
2023-04-19T02:00:08.150Z,1025.17
2023-04-19T02:05:08.248Z,1025.21
2023-04-19T02:10:08.293Z,1025.34
2023-04-19T02:15:08.328Z,1025.31
2023-04-19T02:20:08.430Z,1025.27
2023-04-19T02:25:08.507Z,1025.36
2023-04-19T02:30:08.588Z,1025.36
2023-04-19T02:35:08.638Z,1025.3
2023-04-19T02:40:08.667Z,1025.46
2023-04-19T02:45:08.734Z,1025.36
2023-04-19T02:50:08.837Z,1025.37
2023-04-19T02:55:08.877Z,1025.37
2023-04-19T03:00:08.869Z,1025.37
2023-04-19T03:05:08.916Z,1025.37
2023-04-19T03:10:08.965Z,1025.37
2023-04-19T03:15:07.972Z,1025.37
2023-04-19T03:20:08.022Z,1025.37
2023-04-19T03:25:08.058Z,1025.33
2023-04-19T03:30:08.272Z,1025.33
2023-04-19T03:35:08.268Z,1025.33
2023-04-19T03:40:08.315Z,1025.33
2023-04-19T03:45:08.373Z,1025.33
2023-04-19T03:50:08.429Z,1025.23
2023-04-19T03:55:08.495Z,1025.3
2023-04-19T04:00:08.654Z,1025.31
2023-04-19T04:05:02.994Z,1025.31
2023-04-19T04:10:03.404Z,1025.31
2023-04-19T04:15:03.088Z,1025.33
2023-04-19T04:20:02.439Z,1025.32
2023-04-19T04:25:02.607Z,1025.42
2023-04-19T04:30:03.009Z,1025.29
2023-04-19T04:35:02.394Z,1025.35
2023-04-19T04:40:02.931Z,1025.35
2023-04-19T04:45:02.236Z,1025.39
2023-04-19T04:50:02.492Z,1025.39
2023-04-19T04:55:02.967Z,1025.41
2023-04-19T05:00:02.238Z,1025.42
2023-04-19T05:05:02.382Z,1025.4
2023-04-19T05:10:02.558Z,1025.4
2023-04-19T05:15:02.748Z,1025.47
2023-04-19T05:20:02.859Z,1025.42
2023-04-19T05:25:03.054Z,1025.45
2023-04-19T05:30:02.287Z,1025.45
2023-04-19T05:35:02.558Z,1025.41
2023-04-19T05:40:03.048Z,1025.49
2023-04-19T05:45:03.406Z,1025.38
2023-04-19T05:50:02.755Z,1025.43
2023-04-19T05:55:03.074Z,1025.47
2023-04-19T06:00:02.594Z,1025.47
2023-04-19T06:05:08.491Z,1025.57
2023-04-19T06:10:02.808Z,1025.54
2023-04-19T06:15:03.269Z,1025.52
2023-04-19T06:20:02.600Z,1025.65
2023-04-19T06:25:02.818Z,1025.53
2023-04-19T06:30:03.017Z,1025.58
2023-04-19T06:35:02.250Z,1025.55
2023-04-19T06:40:02.562Z,1025.57
2023-04-19T06:45:02.761Z,1025.52
2023-04-19T06:50:02.984Z,1025.54
2023-04-19T06:55:02.245Z,1025.57
2023-04-19T07:00:02.544Z,1025.53
2023-04-19T07:05:02.900Z,1025.66
2023-04-19T07:10:03.185Z,1025.54
2023-04-19T07:15:02.406Z,1025.64
2023-04-19T07:20:02.870Z,1025.67
2023-04-19T07:25:03.314Z,1025.64
2023-04-19T07:30:02.509Z,1025.59
2023-04-19T07:35:02.806Z,1025.58
2023-04-19T07:40:03.193Z,1025.62
2023-04-19T07:45:02.423Z,1025.51
2023-04-19T07:50:02.899Z,1025.66
2023-04-19T07:55:03.281Z,1025.63
2023-04-19T08:00:02.573Z,1025.63
2023-04-19T08:05:02.945Z,1025.59
2023-04-19T08:10:02.185Z,1025.65
2023-04-19T08:15:13.537Z,1025.67
2023-04-19T08:20:02.352Z,1025.65
2023-04-19T08:25:02.740Z,1025.78
2023-04-19T08:30:03.024Z,1025.77
2023-04-19T08:35:02.190Z,1025.7
2023-04-19T08:40:02.474Z,1025.89
2023-04-19T08:45:26.166Z,1025.75
2023-04-19T08:55:06.598Z,1025.76
2023-04-19T09:00:02.770Z,1025.7
2023-04-19T09:05:03.099Z,1025.7
2023-04-19T09:10:09.847Z,1025.68
2023-04-19T09:15:07.839Z,1025.7
2023-04-19T09:20:03.037Z,1025.67
2023-04-19T09:25:35.416Z,1025.65
2023-04-19T09:30:02.866Z,1025.56
2023-04-19T09:35:03.007Z,1025.6
2023-04-19T09:40:02.219Z,1025.55
2023-04-19T09:45:28.438Z,1025.5
2023-04-19T09:50:21.979Z,1025.45
2023-04-19T09:55:04.790Z,1025.41
2023-04-19T10:00:02.791Z,1025.36
2023-04-19T10:05:19.685Z,1025.22
2023-04-19T10:10:16.130Z,1025.15
2023-04-19T10:15:02.993Z,1025.15
2023-04-19T10:20:02.098Z,1025.15
2023-04-19T10:25:02.326Z,1025.22
2023-04-19T10:30:02.663Z,1024.99
2023-04-19T10:35:02.908Z,1024.99
2023-04-19T10:40:03.180Z,1025.04
2023-04-19T10:45:12.361Z,1024.97
2023-04-19T10:50:02.617Z,1024.87
2023-04-19T10:55:02.882Z,1024.84
2023-04-19T11:00:03.216Z,1024.86
2023-04-19T11:05:02.435Z,1024.8
2023-04-19T11:10:02.737Z,1024.71
2023-04-19T11:15:03.052Z,1024.66
2023-04-19T11:20:02.246Z,1024.61
2023-04-19T11:25:02.522Z,1024.51
2023-04-19T11:30:02.795Z,1024.38
2023-04-19T11:35:03.069Z,1024.37
2023-04-19T11:40:04.668Z,1024.32
2023-04-19T11:45:02.581Z,1024.16
2023-04-19T11:50:02.764Z,1024.09
2023-04-19T11:55:02.940Z,1024.05
2023-04-19T12:00:07.360Z,1023.99
2023-04-19T12:05:02.747Z,1023.95
2023-04-19T12:10:02.912Z,1023.86
2023-04-19T12:15:03.109Z,1023.77
2023-04-19T12:20:02.341Z,1023.8
2023-04-19T12:25:02.605Z,1023.8
2023-04-19T12:30:02.866Z,1023.65
2023-04-19T12:35:03.029Z,1023.61
2023-04-19T12:40:02.164Z,1023.72
2023-04-19T12:45:02.339Z,1023.54
2023-04-19T12:50:02.521Z,1023.62
2023-04-19T12:55:02.738Z,1023.36
2023-04-19T13:00:03.260Z,1023.36
2023-04-19T13:05:02.675Z,1023.3
2023-04-19T13:10:03.025Z,1023.16
2023-04-19T13:15:04.518Z,1023.09
2023-04-19T13:20:02.269Z,1023.09
2023-04-19T13:25:02.527Z,1022.97
2023-04-19T13:30:02.779Z,1022.93
2023-04-19T13:35:03.217Z,1022.84
2023-04-19T13:40:17.429Z,1022.84
2023-04-19T13:45:02.428Z,1022.72
2023-04-19T13:50:02.696Z,1022.67
2023-04-19T13:55:02.904Z,1022.68
2023-04-19T14:00:03.149Z,1022.68
2023-04-19T14:05:02.374Z,1022.56
2023-04-19T14:10:02.621Z,1022.42
2023-04-19T14:15:02.889Z,1022.31
2023-04-19T14:20:04.987Z,1022.26
2023-04-19T14:25:02.810Z,1022.17
2023-04-19T14:30:03.035Z,1022.19
2023-04-19T14:35:02.653Z,1022.07
2023-04-19T14:40:03.096Z,1022.07
2023-04-19T14:45:02.331Z,1022.12
2023-04-19T14:50:02.657Z,1022.03
2023-04-19T14:55:03.061Z,1021.97
2023-04-19T15:00:02.462Z,1021.93
2023-04-19T15:05:03.112Z,1021.85
2023-04-19T15:10:02.382Z,1021.87
2023-04-19T15:15:02.578Z,1021.86
2023-04-19T15:20:03.028Z,1021.74
2023-04-19T15:25:02.406Z,1021.69
2023-04-19T15:30:02.543Z,1021.54
2023-04-19T15:35:03.230Z,1021.54
2023-04-19T15:40:02.613Z,1021.6
2023-04-19T15:45:02.775Z,1021.61
2023-04-19T15:50:02.949Z,1021.63
2023-04-19T15:55:02.240Z,1021.46
2023-04-19T16:00:02.767Z,1021.4
2023-04-19T16:05:03.106Z,1021.45
2023-04-19T16:10:02.571Z,1021.42
2023-04-19T16:15:03.088Z,1021.36
2023-04-19T16:20:02.361Z,1021.36
2023-04-19T16:25:02.629Z,1021.31
2023-04-19T16:30:03.301Z,1021.26
2023-04-19T16:35:02.590Z,1021.31
2023-04-19T16:40:02.977Z,1021.32
2023-04-19T16:45:02.208Z,1021.33
2023-04-19T16:50:02.456Z,1021.31
2023-04-19T16:55:02.712Z,1021.28
2023-04-19T17:00:03.065Z,1021.29
2023-04-19T17:05:02.514Z,1021.3
2023-04-19T17:10:03.044Z,1021.3
2023-04-19T17:15:02.448Z,1021.24
2023-04-19T17:20:02.710Z,1021.24
2023-04-19T17:25:02.974Z,1021.39
2023-04-19T17:30:02.252Z,1021.33
2023-04-19T17:35:02.561Z,1021.26
2023-04-19T17:40:02.717Z,1021.29
2023-04-19T17:45:02.896Z,1021.32
2023-04-19T17:50:03.096Z,1021.38
2023-04-19T17:55:02.495Z,1021.38
2023-04-19T18:00:02.584Z,1021.42
2023-04-19T18:05:02.930Z,1021.34
2023-04-19T18:10:02.207Z,1021.36
2023-04-19T18:15:02.441Z,1021.36
2023-04-19T18:20:02.751Z,1021.36
2023-04-19T18:25:03.278Z,1021.36
2023-04-19T18:30:02.395Z,1021.36
2023-04-19T18:35:02.560Z,1021.49
2023-04-19T18:40:02.783Z,1021.54
2023-04-19T18:45:03.828Z,1021.64
2023-04-19T18:50:04.960Z,1021.7
2023-04-19T18:55:02.264Z,1021.67
2023-04-19T19:00:02.613Z,1021.81
2023-04-19T19:05:03.278Z,1021.82
2023-04-19T19:10:09.826Z,1021.83
2023-04-19T19:15:02.789Z,1021.88
2023-04-19T19:20:02.987Z,1021.91
2023-04-19T19:25:02.139Z,1021.96
2023-04-19T19:30:02.276Z,1021.99
2023-04-19T19:35:06.377Z,1021.99
2023-04-19T19:40:05.139Z,1022.06
2023-04-19T19:45:02.490Z,1022.02
2023-04-19T19:50:34.914Z,1022.01
2023-04-19T19:55:02.316Z,1022.02
2023-04-19T20:00:22.965Z,1022.13
2023-04-19T20:05:02.909Z,1022.21
2023-04-19T20:10:02.306Z,1022.21
2023-04-19T20:15:02.556Z,1022.21
2023-04-19T20:20:02.741Z,1022.21
2023-04-19T20:25:02.817Z,1022.3
2023-04-19T20:30:02.976Z,1022.35
2023-04-19T20:35:02.221Z,1022.42
2023-04-19T20:40:02.368Z,1022.4
2023-04-19T20:45:02.520Z,1022.34
2023-04-19T20:50:02.738Z,1022.44
2023-04-19T20:55:02.835Z,1022.36
2023-04-19T21:00:03.456Z,1022.4
2023-04-19T21:05:22.431Z,1022.31
2023-04-19T21:10:08.511Z,1022.31
2023-04-19T21:15:08.549Z,1022.33
2023-04-19T21:20:08.640Z,1022.34
2023-04-19T21:25:08.654Z,1022.3
2023-04-19T21:30:08.695Z,1022.31
2023-04-19T21:35:08.733Z,1022.33
2023-04-19T21:40:08.833Z,1022.33
2023-04-19T21:45:08.859Z,1022.22
2023-04-19T21:50:08.997Z,1022.15
2023-04-19T21:55:08.081Z,1022.16
2023-04-19T22:00:08.114Z,1022.03
2023-04-19T22:05:08.206Z,1022.02
2023-04-19T22:10:08.349Z,1022.0
2023-04-19T22:15:08.462Z,1021.99
2023-04-19T22:20:08.559Z,1022.0
2023-04-19T22:25:08.617Z,1022.01
2023-04-19T22:30:08.692Z,1022.08
2023-04-19T22:35:08.734Z,1022.1
2023-04-19T22:40:08.814Z,1022.1
2023-04-19T22:45:08.878Z,1021.91
2023-04-19T22:50:09.028Z,1021.88
2023-04-19T22:55:08.127Z,1021.93
2023-04-19T23:01:13.734Z,1021.93
2023-04-19T23:05:08.883Z,1021.76
2023-04-19T23:10:08.264Z,1021.78
2023-04-19T23:15:08.343Z,1021.74
2023-04-19T23:20:11.230Z,1021.67
2023-04-19T23:25:08.315Z,1021.53
2023-04-19T23:30:08.356Z,1021.51
2023-04-19T23:35:08.404Z,1021.42
2023-04-19T23:40:08.490Z,1021.42
2023-04-19T23:45:08.569Z,1021.35
2023-04-19T23:50:08.623Z,1021.28
2023-04-19T23:55:08.699Z,1021.27
